sensor_id;sensor_type;location;lat;lon;timestamp;P1;durP1;ratioP1;P2;durP2;ratioP2
22916;SDS011;11624;53.250;7.456;2023-01-01T00:01:54;23.45;;;9.80;;
22916;SDS011;11624;53.250;7.456;2023-01-01T00:04:22;26.45;;;10.43;;
22916;SDS011;11624;53.250;7.456;2023-01-01T00:06:50;26.98;;;10.18;;
22916;SDS011;11624;53.250;7.456;2023-01-01T00:09:20;27.27;;;10.80;;
22916;SDS011;11624;53.250;7.456;2023-01-01T00:12:05;23.33;;;9.52;;
22916;SDS011;11624;53.250;7.456;2023-01-01T00:14:34;24.17;;;11.38;;
22916;SDS011;11624;53.250;7.456;2023-01-01T00:17:02;19.95;;;9.05;;
22916;SDS011;11624;53.250;7.456;2023-01-01T00:19:30;23.95;;;10.82;;
22916;SDS011;11624;53.250;7.456;2023-01-01T00:21:58;22.38;;;9.95;;
22916;SDS011;11624;53.250;7.456;2023-01-01T00:24:47;25.70;;;11.00;;
22916;SDS011;11624;53.250;7.456;2023-01-01T00:27:16;28.52;;;10.65;;
22916;SDS011;11624;53.250;7.456;2023-01-01T00:29:44;23.70;;;9.27;;
22916;SDS011;11624;53.250;7.456;2023-01-01T00:32:12;24.52;;;9.52;;
22916;SDS011;11624;53.250;7.456;2023-01-01T00:34:47;24.10;;;9.82;;
22916;SDS011;11624;53.250;7.456;2023-01-01T00:37:15;29.27;;;10.88;;
22916;SDS011;11624;53.250;7.456;2023-01-01T00:39:44;28.80;;;11.38;;
22916;SDS011;11624;53.250;7.456;2023-01-01T00:42:13;24.38;;;11.63;;
22916;SDS011;11624;53.250;7.456;2023-01-01T00:44:41;29.25;;;12.43;;
22916;SDS011;11624;53.250;7.456;2023-01-01T00:47:10;27.55;;;13.48;;
22916;SDS011;11624;53.250;7.456;2023-01-01T00:49:38;30.42;;;12.80;;
22916;SDS011;11624;53.250;7.456;2023-01-01T00:52:06;25.25;;;12.57;;
22916;SDS011;11624;53.250;7.456;2023-01-01T00:54:34;29.45;;;14.45;;
22916;SDS011;11624;53.250;7.456;2023-01-01T00:57:02;28.42;;;12.23;;
22916;SDS011;11624;53.250;7.456;2023-01-01T00:59:32;30.45;;;13.30;;
22916;SDS011;11624;53.250;7.456;2023-01-01T01:02:00;31.52;;;13.63;;
22916;SDS011;11624;53.250;7.456;2023-01-01T01:04:28;26.48;;;12.60;;
22916;SDS011;11624;53.250;7.456;2023-01-01T01:06:56;27.27;;;13.38;;
22916;SDS011;11624;53.250;7.456;2023-01-01T01:09:25;31.05;;;13.18;;
22916;SDS011;11624;53.250;7.456;2023-01-01T01:11:53;25.75;;;13.05;;
22916;SDS011;11624;53.250;7.456;2023-01-01T01:14:42;31.38;;;12.90;;
22916;SDS011;11624;53.250;7.456;2023-01-01T01:17:10;28.20;;;13.88;;
22916;SDS011;11624;53.250;7.456;2023-01-01T01:19:38;28.73;;;13.65;;
22916;SDS011;11624;53.250;7.456;2023-01-01T01:22:06;32.03;;;13.80;;
22916;SDS011;11624;53.250;7.456;2023-01-01T01:24:34;27.08;;;14.07;;
22916;SDS011;11624;53.250;7.456;2023-01-01T01:27:02;25.67;;;12.27;;
22916;SDS011;11624;53.250;7.456;2023-01-01T01:29:30;26.00;;;13.88;;
22916;SDS011;11624;53.250;7.456;2023-01-01T01:32:00;27.15;;;13.27;;
22916;SDS011;11624;53.250;7.456;2023-01-01T01:34:28;27.67;;;12.63;;
22916;SDS011;11624;53.250;7.456;2023-01-01T01:36:56;32.20;;;13.43;;
22916;SDS011;11624;53.250;7.456;2023-01-01T01:39:24;30.73;;;13.48;;
22916;SDS011;11624;53.250;7.456;2023-01-01T01:41:52;27.33;;;13.27;;
22916;SDS011;11624;53.250;7.456;2023-01-01T01:47:30;28.13;;;13.65;;
22916;SDS011;11624;53.250;7.456;2023-01-01T01:50:03;27.10;;;13.95;;
22916;SDS011;11624;53.250;7.456;2023-01-01T01:52:36;28.65;;;13.82;;
22916;SDS011;11624;53.250;7.456;2023-01-01T01:55:08;28.70;;;14.80;;
22916;SDS011;11624;53.250;7.456;2023-01-01T01:57:37;33.22;;;16.48;;
22916;SDS011;11624;53.250;7.456;2023-01-01T02:00:07;33.67;;;16.90;;
22916;SDS011;11624;53.250;7.456;2023-01-01T02:02:41;31.58;;;16.40;;
22916;SDS011;11624;53.250;7.456;2023-01-01T02:05:14;34.00;;;15.32;;
22916;SDS011;11624;53.250;7.456;2023-01-01T02:07:45;32.53;;;16.55;;
22916;SDS011;11624;53.250;7.456;2023-01-01T02:10:13;32.47;;;16.95;;
22916;SDS011;11624;53.250;7.456;2023-01-01T02:12:41;33.72;;;16.00;;
22916;SDS011;11624;53.250;7.456;2023-01-01T02:15:10;35.45;;;16.35;;
22916;SDS011;11624;53.250;7.456;2023-01-01T02:17:42;32.92;;;16.10;;
22916;SDS011;11624;53.250;7.456;2023-01-01T02:20:23;35.05;;;16.25;;
22916;SDS011;11624;53.250;7.456;2023-01-01T02:26:15;34.78;;;16.17;;
22916;SDS011;11624;53.250;7.456;2023-01-01T02:29:08;31.00;;;15.40;;
22916;SDS011;11624;53.250;7.456;2023-01-01T02:31:43;35.35;;;16.08;;
22916;SDS011;11624;53.250;7.456;2023-01-01T02:34:17;29.85;;;15.73;;
22916;SDS011;11624;53.250;7.456;2023-01-01T02:36:50;29.50;;;15.85;;
22916;SDS011;11624;53.250;7.456;2023-01-01T02:39:21;37.35;;;16.48;;
22916;SDS011;11624;53.250;7.456;2023-01-01T02:41:54;30.45;;;15.68;;
22916;SDS011;11624;53.250;7.456;2023-01-01T02:44:26;32.97;;;15.70;;
22916;SDS011;11624;53.250;7.456;2023-01-01T02:47:04;38.80;;;17.45;;
22916;SDS011;11624;53.250;7.456;2023-01-01T02:49:35;28.42;;;14.40;;
22916;SDS011;11624;53.250;7.456;2023-01-01T02:52:08;30.88;;;14.98;;
22916;SDS011;11624;53.250;7.456;2023-01-01T02:54:43;32.78;;;16.13;;
22916;SDS011;11624;53.250;7.456;2023-01-01T02:57:22;31.52;;;16.50;;
22916;SDS011;11624;53.250;7.456;2023-01-01T03:00:01;33.35;;;14.98;;
22916;SDS011;11624;53.250;7.456;2023-01-01T03:02:56;29.48;;;14.95;;
22916;SDS011;11624;53.250;7.456;2023-01-01T03:05:38;31.08;;;16.30;;
22916;SDS011;11624;53.250;7.456;2023-01-01T03:08:24;31.00;;;16.02;;
22916;SDS011;11624;53.250;7.456;2023-01-01T03:11:01;30.77;;;15.52;;
22916;SDS011;11624;53.250;7.456;2023-01-01T03:13:35;32.80;;;15.20;;
22916;SDS011;11624;53.250;7.456;2023-01-01T03:16:14;29.55;;;14.68;;
22916;SDS011;11624;53.250;7.456;2023-01-01T03:18:46;30.42;;;14.43;;
22916;SDS011;11624;53.250;7.456;2023-01-01T03:21:38;29.80;;;14.35;;
22916;SDS011;11624;53.250;7.456;2023-01-01T03:24:09;29.67;;;15.05;;
22916;SDS011;11624;53.250;7.456;2023-01-01T03:26:42;29.35;;;14.77;;
22916;SDS011;11624;53.250;7.456;2023-01-01T03:29:13;28.35;;;15.35;;
22916;SDS011;11624;53.250;7.456;2023-01-01T03:31:44;31.73;;;15.30;;
22916;SDS011;11624;53.250;7.456;2023-01-01T03:34:16;35.38;;;15.77;;
22916;SDS011;11624;53.250;7.456;2023-01-01T03:36:49;31.08;;;14.73;;
22916;SDS011;11624;53.250;7.456;2023-01-01T03:39:22;27.98;;;14.07;;
22916;SDS011;11624;53.250;7.456;2023-01-01T03:41:53;28.50;;;14.07;;
22916;SDS011;11624;53.250;7.456;2023-01-01T03:44:29;29.05;;;13.57;;
22916;SDS011;11624;53.250;7.456;2023-01-01T03:47:02;32.10;;;15.48;;
22916;SDS011;11624;53.250;7.456;2023-01-01T03:49:32;32.58;;;16.45;;
22916;SDS011;11624;53.250;7.456;2023-01-01T03:52:05;32.30;;;16.60;;
22916;SDS011;11624;53.250;7.456;2023-01-01T03:54:44;33.75;;;16.10;;
22916;SDS011;11624;53.250;7.456;2023-01-01T03:57:26;36.80;;;17.80;;
22916;SDS011;11624;53.250;7.456;2023-01-01T04:00:01;34.53;;;17.05;;
22916;SDS011;11624;53.250;7.456;2023-01-01T04:02:42;31.08;;;16.83;;
22916;SDS011;11624;53.250;7.456;2023-01-01T04:05:15;30.92;;;16.80;;
22916;SDS011;11624;53.250;7.456;2023-01-01T04:07:44;34.20;;;15.07;;
22916;SDS011;11624;53.250;7.456;2023-01-01T04:10:12;30.70;;;13.48;;
22916;SDS011;11624;53.250;7.456;2023-01-01T04:12:46;26.75;;;13.90;;
22916;SDS011;11624;53.250;7.456;2023-01-01T04:15:16;27.05;;;13.50;;
22916;SDS011;11624;53.250;7.456;2023-01-01T04:17:48;23.83;;;10.85;;
22916;SDS011;11624;53.250;7.456;2023-01-01T04:20:16;28.13;;;10.85;;
22916;SDS011;11624;53.250;7.456;2023-01-01T04:22:44;26.95;;;10.60;;
22916;SDS011;11624;53.250;7.456;2023-01-01T04:25:13;23.90;;;9.68;;
22916;SDS011;11624;53.250;7.456;2023-01-01T04:27:42;26.15;;;9.10;;
22916;SDS011;11624;53.250;7.456;2023-01-01T04:30:11;19.35;;;7.18;;
22916;SDS011;11624;53.250;7.456;2023-01-01T04:32:40;20.30;;;6.75;;
22916;SDS011;11624;53.250;7.456;2023-01-01T04:35:11;20.20;;;6.65;;
22916;SDS011;11624;53.250;7.456;2023-01-01T04:37:40;19.80;;;6.97;;
22916;SDS011;11624;53.250;7.456;2023-01-01T04:40:09;18.67;;;5.88;;
22916;SDS011;11624;53.250;7.456;2023-01-01T04:42:38;16.63;;;5.03;;
22916;SDS011;11624;53.250;7.456;2023-01-01T04:45:08;16.98;;;4.97;;
22916;SDS011;11624;53.250;7.456;2023-01-01T04:47:40;19.30;;;5.38;;
22916;SDS011;11624;53.250;7.456;2023-01-01T04:50:10;20.23;;;6.05;;
22916;SDS011;11624;53.250;7.456;2023-01-01T04:52:38;18.63;;;5.82;;
22916;SDS011;11624;53.250;7.456;2023-01-01T04:55:06;20.55;;;5.97;;
22916;SDS011;11624;53.250;7.456;2023-01-01T04:57:35;24.95;;;6.40;;
22916;SDS011;11624;53.250;7.456;2023-01-01T05:00:04;22.00;;;6.47;;
22916;SDS011;11624;53.250;7.456;2023-01-01T05:02:32;19.33;;;5.50;;
22916;SDS011;11624;53.250;7.456;2023-01-01T05:05:01;22.17;;;5.93;;
22916;SDS011;11624;53.250;7.456;2023-01-01T05:07:30;19.40;;;6.20;;
22916;SDS011;11624;53.250;7.456;2023-01-01T05:09:59;21.85;;;6.07;;
22916;SDS011;11624;53.250;7.456;2023-01-01T05:12:28;18.92;;;6.32;;
22916;SDS011;11624;53.250;7.456;2023-01-01T05:14:56;20.70;;;5.82;;
22916;SDS011;11624;53.250;7.456;2023-01-01T05:17:24;16.00;;;5.38;;
22916;SDS011;11624;53.250;7.456;2023-01-01T05:19:52;15.05;;;4.78;;
22916;SDS011;11624;53.250;7.456;2023-01-01T05:22:20;19.98;;;4.63;;
22916;SDS011;11624;53.250;7.456;2023-01-01T05:24:50;17.20;;;4.88;;
22916;SDS011;11624;53.250;7.456;2023-01-01T05:27:18;13.80;;;4.00;;
22916;SDS011;11624;53.250;7.456;2023-01-01T05:29:46;12.50;;;3.90;;
22916;SDS011;11624;53.250;7.456;2023-01-01T05:32:14;16.35;;;4.20;;
22916;SDS011;11624;53.250;7.456;2023-01-01T05:34:41;19.15;;;4.47;;
22916;SDS011;11624;53.250;7.456;2023-01-01T05:37:09;16.27;;;4.15;;
22916;SDS011;11624;53.250;7.456;2023-01-01T05:39:37;18.45;;;4.00;;
22916;SDS011;11624;53.250;7.456;2023-01-01T05:42:06;12.98;;;3.42;;
22916;SDS011;11624;53.250;7.456;2023-01-01T05:44:34;12.77;;;3.17;;
22916;SDS011;11624;53.250;7.456;2023-01-01T05:47:02;15.60;;;3.50;;
22916;SDS011;11624;53.250;7.456;2023-01-01T05:49:31;17.05;;;3.80;;
22916;SDS011;11624;53.250;7.456;2023-01-01T05:52:01;14.20;;;3.28;;
22916;SDS011;11624;53.250;7.456;2023-01-01T05:54:30;19.05;;;4.00;;
22916;SDS011;11624;53.250;7.456;2023-01-01T05:56:58;18.13;;;4.65;;
22916;SDS011;11624;53.250;7.456;2023-01-01T05:59:27;18.13;;;4.60;;
22916;SDS011;11624;53.250;7.456;2023-01-01T06:01:55;16.90;;;4.20;;
22916;SDS011;11624;53.250;7.456;2023-01-01T06:04:24;13.70;;;3.97;;
22916;SDS011;11624;53.250;7.456;2023-01-01T06:06:52;10.77;;;3.40;;
22916;SDS011;11624;53.250;7.456;2023-01-01T06:09:20;10.60;;;2.92;;
22916;SDS011;11624;53.250;7.456;2023-01-01T06:11:48;9.90;;;2.80;;
22916;SDS011;11624;53.250;7.456;2023-01-01T06:14:16;11.45;;;2.72;;
22916;SDS011;11624;53.250;7.456;2023-01-01T06:16:45;10.10;;;2.33;;
22916;SDS011;11624;53.250;7.456;2023-01-01T06:19:13;12.43;;;2.53;;
22916;SDS011;11624;53.250;7.456;2023-01-01T06:21:41;14.23;;;2.80;;
22916;SDS011;11624;53.250;7.456;2023-01-01T06:24:10;11.20;;;2.75;;
22916;SDS011;11624;53.250;7.456;2023-01-01T06:26:38;13.73;;;3.03;;
22916;SDS011;11624;53.250;7.456;2023-01-01T06:29:06;12.15;;;2.63;;
22916;SDS011;11624;53.250;7.456;2023-01-01T06:31:34;9.52;;;2.67;;
22916;SDS011;11624;53.250;7.456;2023-01-01T06:34:08;10.63;;;2.40;;
22916;SDS011;11624;53.250;7.456;2023-01-01T06:36:36;7.90;;;1.95;;
22916;SDS011;11624;53.250;7.456;2023-01-01T06:39:04;7.47;;;2.00;;
22916;SDS011;11624;53.250;7.456;2023-01-01T06:41:32;6.93;;;1.88;;
22916;SDS011;11624;53.250;7.456;2023-01-01T06:44:00;12.02;;;2.05;;
22916;SDS011;11624;53.250;7.456;2023-01-01T06:46:29;8.77;;;2.30;;
22916;SDS011;11624;53.250;7.456;2023-01-01T06:48:59;11.80;;;2.22;;
22916;SDS011;11624;53.250;7.456;2023-01-01T06:51:30;9.00;;;2.00;;
22916;SDS011;11624;53.250;7.456;2023-01-01T06:54:00;10.18;;;2.10;;
22916;SDS011;11624;53.250;7.456;2023-01-01T06:56:29;7.97;;;1.80;;
22916;SDS011;11624;53.250;7.456;2023-01-01T06:58:57;9.98;;;2.00;;
22916;SDS011;11624;53.250;7.456;2023-01-01T07:01:26;10.23;;;1.90;;
22916;SDS011;11624;53.250;7.456;2023-01-01T07:03:56;7.57;;;1.92;;
22916;SDS011;11624;53.250;7.456;2023-01-01T07:06:26;5.40;;;1.65;;
22916;SDS011;11624;53.250;7.456;2023-01-01T07:08:57;8.43;;;2.13;;
22916;SDS011;11624;53.250;7.456;2023-01-01T07:11:26;9.63;;;2.03;;
22916;SDS011;11624;53.250;7.456;2023-01-01T07:13:55;13.00;;;2.20;;
22916;SDS011;11624;53.250;7.456;2023-01-01T07:16:24;9.82;;;2.38;;
22916;SDS011;11624;53.250;7.456;2023-01-01T07:18:52;10.70;;;2.30;;
22916;SDS011;11624;53.250;7.456;2023-01-01T07:21:23;8.38;;;1.90;;
22916;SDS011;11624;53.250;7.456;2023-01-01T07:23:55;11.95;;;2.13;;
22916;SDS011;11624;53.250;7.456;2023-01-01T07:26:26;11.38;;;2.00;;
22916;SDS011;11624;53.250;7.456;2023-01-01T07:28:56;5.05;;;1.55;;
22916;SDS011;11624;53.250;7.456;2023-01-01T07:31:32;10.27;;;1.83;;
22916;SDS011;11624;53.250;7.456;2023-01-01T07:34:00;7.90;;;1.67;;
22916;SDS011;11624;53.250;7.456;2023-01-01T07:36:28;10.63;;;1.83;;
22916;SDS011;11624;53.250;7.456;2023-01-01T07:38:57;8.98;;;1.73;;
22916;SDS011;11624;53.250;7.456;2023-01-01T07:41:26;6.80;;;1.40;;
22916;SDS011;11624;53.250;7.456;2023-01-01T07:43:54;11.20;;;1.80;;
22916;SDS011;11624;53.250;7.456;2023-01-01T07:46:22;12.50;;;1.77;;
22916;SDS011;11624;53.250;7.456;2023-01-01T07:48:50;14.30;;;2.08;;
22916;SDS011;11624;53.250;7.456;2023-01-01T07:51:18;10.43;;;1.58;;
22916;SDS011;11624;53.250;7.456;2023-01-01T07:53:46;9.10;;;1.85;;
22916;SDS011;11624;53.250;7.456;2023-01-01T07:56:16;14.27;;;2.20;;
22916;SDS011;11624;53.250;7.456;2023-01-01T07:58:44;10.50;;;2.00;;
22916;SDS011;11624;53.250;7.456;2023-01-01T08:01:12;10.65;;;2.20;;
22916;SDS011;11624;53.250;7.456;2023-01-01T08:03:41;12.00;;;1.73;;
22916;SDS011;11624;53.250;7.456;2023-01-01T08:06:10;10.57;;;2.05;;
22916;SDS011;11624;53.250;7.456;2023-01-01T08:08:39;14.60;;;2.60;;
22916;SDS011;11624;53.250;7.456;2023-01-01T08:11:07;8.23;;;1.75;;
22916;SDS011;11624;53.250;7.456;2023-01-01T08:13:37;13.32;;;2.30;;
22916;SDS011;11624;53.250;7.456;2023-01-01T08:16:05;11.38;;;1.92;;
22916;SDS011;11624;53.250;7.456;2023-01-01T08:18:34;10.45;;;2.30;;
22916;SDS011;11624;53.250;7.456;2023-01-01T08:21:02;14.90;;;2.13;;
22916;SDS011;11624;53.250;7.456;2023-01-01T08:23:31;13.43;;;2.13;;
22916;SDS011;11624;53.250;7.456;2023-01-01T08:25:59;14.63;;;2.03;;
22916;SDS011;11624;53.250;7.456;2023-01-01T08:28:28;12.68;;;2.30;;
22916;SDS011;11624;53.250;7.456;2023-01-01T08:30:58;17.05;;;2.63;;
22916;SDS011;11624;53.250;7.456;2023-01-01T08:33:27;16.27;;;2.70;;
22916;SDS011;11624;53.250;7.456;2023-01-01T08:35:55;9.77;;;1.95;;
22916;SDS011;11624;53.250;7.456;2023-01-01T08:38:24;10.75;;;2.03;;
22916;SDS011;11624;53.250;7.456;2023-01-01T08:40:52;10.32;;;2.17;;
22916;SDS011;11624;53.250;7.456;2023-01-01T08:43:20;12.82;;;2.28;;
22916;SDS011;11624;53.250;7.456;2023-01-01T08:45:48;10.15;;;2.67;;
22916;SDS011;11624;53.250;7.456;2023-01-01T08:48:17;14.40;;;2.55;;
22916;SDS011;11624;53.250;7.456;2023-01-01T08:50:52;15.57;;;2.88;;
22916;SDS011;11624;53.250;7.456;2023-01-01T08:53:20;13.90;;;2.50;;
22916;SDS011;11624;53.250;7.456;2023-01-01T08:55:55;15.73;;;2.15;;
22916;SDS011;11624;53.250;7.456;2023-01-01T08:58:24;16.13;;;2.58;;
22916;SDS011;11624;53.250;7.456;2023-01-01T09:00:53;14.98;;;2.28;;
22916;SDS011;11624;53.250;7.456;2023-01-01T09:03:22;16.15;;;1.88;;
22916;SDS011;11624;53.250;7.456;2023-01-01T09:05:51;17.08;;;2.88;;
22916;SDS011;11624;53.250;7.456;2023-01-01T09:08:20;14.38;;;2.50;;
22916;SDS011;11624;53.250;7.456;2023-01-01T09:10:49;13.35;;;2.30;;
22916;SDS011;11624;53.250;7.456;2023-01-01T09:13:18;14.02;;;2.60;;
22916;SDS011;11624;53.250;7.456;2023-01-01T09:15:47;15.50;;;2.88;;
22916;SDS011;11624;53.250;7.456;2023-01-01T09:18:15;13.48;;;2.47;;
22916;SDS011;11624;53.250;7.456;2023-01-01T09:20:45;14.50;;;2.72;;
22916;SDS011;11624;53.250;7.456;2023-01-01T09:23:13;18.33;;;2.10;;
22916;SDS011;11624;53.250;7.456;2023-01-01T09:25:41;16.02;;;2.75;;
22916;SDS011;11624;53.250;7.456;2023-01-01T09:28:10;15.48;;;2.28;;
22916;SDS011;11624;53.250;7.456;2023-01-01T09:30:39;18.02;;;2.42;;
22916;SDS011;11624;53.250;7.456;2023-01-01T09:33:07;14.05;;;2.08;;
22916;SDS011;11624;53.250;7.456;2023-01-01T09:35:35;17.10;;;2.28;;
22916;SDS011;11624;53.250;7.456;2023-01-01T09:38:05;11.73;;;2.30;;
22916;SDS011;11624;53.250;7.456;2023-01-01T09:40:35;11.00;;;2.17;;
22916;SDS011;11624;53.250;7.456;2023-01-01T09:43:19;15.80;;;2.65;;
22916;SDS011;11624;53.250;7.456;2023-01-01T09:45:55;16.67;;;2.47;;
22916;SDS011;11624;53.250;7.456;2023-01-01T09:48:25;12.07;;;1.88;;
22916;SDS011;11624;53.250;7.456;2023-01-01T09:50:56;13.70;;;2.50;;
22916;SDS011;11624;53.250;7.456;2023-01-01T09:53:29;15.40;;;2.78;;
22916;SDS011;11624;53.250;7.456;2023-01-01T09:55:59;15.68;;;2.40;;
22916;SDS011;11624;53.250;7.456;2023-01-01T09:58:31;16.33;;;2.88;;
22916;SDS011;11624;53.250;7.456;2023-01-01T10:01:02;14.65;;;2.42;;
22916;SDS011;11624;53.250;7.456;2023-01-01T10:03:39;14.32;;;2.42;;
22916;SDS011;11624;53.250;7.456;2023-01-01T10:06:14;18.52;;;2.70;;
22916;SDS011;11624;53.250;7.456;2023-01-01T10:11:45;15.13;;;2.78;;
22916;SDS011;11624;53.250;7.456;2023-01-01T10:14:23;17.55;;;3.05;;
22916;SDS011;11624;53.250;7.456;2023-01-01T10:16:57;17.60;;;2.38;;
22916;SDS011;11624;53.250;7.456;2023-01-01T10:19:29;15.27;;;2.90;;
22916;SDS011;11624;53.250;7.456;2023-01-01T10:22:02;15.38;;;2.50;;
22916;SDS011;11624;53.250;7.456;2023-01-01T10:24:37;16.00;;;2.42;;
22916;SDS011;11624;53.250;7.456;2023-01-01T10:27:12;18.70;;;2.83;;
22916;SDS011;11624;53.250;7.456;2023-01-01T10:29:56;13.07;;;2.65;;
22916;SDS011;11624;53.250;7.456;2023-01-01T10:32:31;13.77;;;2.55;;
22916;SDS011;11624;53.250;7.456;2023-01-01T10:35:01;14.32;;;3.08;;
22916;SDS011;11624;53.250;7.456;2023-01-01T10:37:32;15.18;;;2.20;;
22916;SDS011;11624;53.250;7.456;2023-01-01T10:40:05;17.02;;;3.28;;
22916;SDS011;11624;53.250;7.456;2023-01-01T10:42:42;15.40;;;2.65;;
22916;SDS011;11624;53.250;7.456;2023-01-01T10:45:14;19.63;;;2.65;;
22916;SDS011;11624;53.250;7.456;2023-01-01T10:50:52;16.10;;;2.65;;
22916;SDS011;11624;53.250;7.456;2023-01-01T10:53:29;18.17;;;3.00;;
22916;SDS011;11624;53.250;7.456;2023-01-01T10:56:04;14.88;;;2.85;;
22916;SDS011;11624;53.250;7.456;2023-01-01T10:58:36;15.40;;;3.10;;
22916;SDS011;11624;53.250;7.456;2023-01-01T11:01:07;13.70;;;2.10;;
22916;SDS011;11624;53.250;7.456;2023-01-01T11:03:36;17.85;;;2.85;;
22916;SDS011;11624;53.250;7.456;2023-01-01T11:06:19;20.48;;;3.10;;
22916;SDS011;11624;53.250;7.456;2023-01-01T11:08:49;21.58;;;4.63;;
22916;SDS011;11624;53.250;7.456;2023-01-01T11:11:22;21.23;;;4.75;;
22916;SDS011;11624;53.250;7.456;2023-01-01T11:13:55;24.80;;;6.28;;
22916;SDS011;11624;53.250;7.456;2023-01-01T11:16:25;24.38;;;4.75;;
22916;SDS011;11624;53.250;7.456;2023-01-01T11:18:59;23.27;;;6.43;;
22916;SDS011;11624;53.250;7.456;2023-01-01T11:21:30;14.02;;;3.05;;
22916;SDS011;11624;53.250;7.456;2023-01-01T11:24:09;16.33;;;2.30;;
22916;SDS011;11624;53.250;7.456;2023-01-01T11:26:45;16.73;;;3.45;;
22916;SDS011;11624;53.250;7.456;2023-01-01T11:29:25;18.73;;;4.28;;
22916;SDS011;11624;53.250;7.456;2023-01-01T11:31:54;17.10;;;2.55;;
22916;SDS011;11624;53.250;7.456;2023-01-01T11:34:27;20.52;;;3.05;;
22916;SDS011;11624;53.250;7.456;2023-01-01T11:37:14;15.85;;;3.58;;
22916;SDS011;11624;53.250;7.456;2023-01-01T11:39:47;17.63;;;4.00;;
22916;SDS011;11624;53.250;7.456;2023-01-01T11:42:20;15.57;;;3.80;;
22916;SDS011;11624;53.250;7.456;2023-01-01T11:44:50;18.90;;;3.10;;
22916;SDS011;11624;53.250;7.456;2023-01-01T11:47:22;16.27;;;2.70;;
22916;SDS011;11624;53.250;7.456;2023-01-01T11:49:56;14.13;;;2.88;;
22916;SDS011;11624;53.250;7.456;2023-01-01T11:52:28;18.05;;;2.90;;
22916;SDS011;11624;53.250;7.456;2023-01-01T11:55:07;16.33;;;2.60;;
22916;SDS011;11624;53.250;7.456;2023-01-01T11:57:44;15.27;;;2.97;;
22916;SDS011;11624;53.250;7.456;2023-01-01T12:00:17;15.60;;;3.40;;
22916;SDS011;11624;53.250;7.456;2023-01-01T12:02:47;16.45;;;3.13;;
22916;SDS011;11624;53.250;7.456;2023-01-01T12:05:21;14.60;;;2.88;;
22916;SDS011;11624;53.250;7.456;2023-01-01T12:07:52;16.98;;;2.70;;
22916;SDS011;11624;53.250;7.456;2023-01-01T12:10:22;17.42;;;2.72;;
22916;SDS011;11624;53.250;7.456;2023-01-01T12:12:57;12.73;;;2.15;;
22916;SDS011;11624;53.250;7.456;2023-01-01T12:15:30;11.77;;;2.67;;
22916;SDS011;11624;53.250;7.456;2023-01-01T12:18:04;14.98;;;3.08;;
22916;SDS011;11624;53.250;7.456;2023-01-01T12:20:39;16.13;;;2.85;;
22916;SDS011;11624;53.250;7.456;2023-01-01T12:23:12;17.83;;;2.25;;
22916;SDS011;11624;53.250;7.456;2023-01-01T12:25:44;18.45;;;2.45;;
22916;SDS011;11624;53.250;7.456;2023-01-01T12:28:22;18.95;;;2.50;;
22916;SDS011;11624;53.250;7.456;2023-01-01T12:30:59;13.40;;;2.55;;
22916;SDS011;11624;53.250;7.456;2023-01-01T12:33:43;17.35;;;2.63;;
22916;SDS011;11624;53.250;7.456;2023-01-01T12:36:24;12.10;;;2.35;;
22916;SDS011;11624;53.250;7.456;2023-01-01T12:42:25;16.33;;;2.15;;
22916;SDS011;11624;53.250;7.456;2023-01-01T12:45:15;17.00;;;2.75;;
22916;SDS011;11624;53.250;7.456;2023-01-01T12:47:57;13.70;;;2.47;;
22916;SDS011;11624;53.250;7.456;2023-01-01T12:50:33;17.20;;;2.67;;
22916;SDS011;11624;53.250;7.456;2023-01-01T12:53:20;15.18;;;2.72;;
22916;SDS011;11624;53.250;7.456;2023-01-01T12:58:50;16.63;;;2.83;;
22916;SDS011;11624;53.250;7.456;2023-01-01T13:01:24;18.58;;;2.97;;
22916;SDS011;11624;53.250;7.456;2023-01-01T13:03:59;17.35;;;3.10;;
22916;SDS011;11624;53.250;7.456;2023-01-01T13:06:30;18.60;;;3.67;;
22916;SDS011;11624;53.250;7.456;2023-01-01T13:09:04;17.27;;;2.90;;
22916;SDS011;11624;53.250;7.456;2023-01-01T13:11:37;17.85;;;2.60;;
22916;SDS011;11624;53.250;7.456;2023-01-01T13:14:11;18.00;;;2.75;;
22916;SDS011;11624;53.250;7.456;2023-01-01T13:16:40;17.35;;;2.85;;
22916;SDS011;11624;53.250;7.456;2023-01-01T13:19:22;17.77;;;3.35;;
22916;SDS011;11624;53.250;7.456;2023-01-01T13:21:52;12.13;;;2.55;;
22916;SDS011;11624;53.250;7.456;2023-01-01T13:24:20;16.75;;;2.88;;
22916;SDS011;11624;53.250;7.456;2023-01-01T13:26:50;18.88;;;3.53;;
22916;SDS011;11624;53.250;7.456;2023-01-01T13:29:41;22.85;;;3.20;;
22916;SDS011;11624;53.250;7.456;2023-01-01T13:32:15;14.73;;;2.60;;
22916;SDS011;11624;53.250;7.456;2023-01-01T13:37:40;20.88;;;3.00;;
22916;SDS011;11624;53.250;7.456;2023-01-01T13:43:20;16.92;;;3.30;;
22916;SDS011;11624;53.250;7.456;2023-01-01T13:45:58;20.67;;;3.38;;
22916;SDS011;11624;53.250;7.456;2023-01-01T13:48:56;14.63;;;2.47;;
22916;SDS011;11624;53.250;7.456;2023-01-01T13:54:46;17.05;;;2.72;;
22916;SDS011;11624;53.250;7.456;2023-01-01T14:00:38;20.27;;;2.88;;
22916;SDS011;11624;53.250;7.456;2023-01-01T14:03:20;16.55;;;2.80;;
22916;SDS011;11624;53.250;7.456;2023-01-01T14:05:53;11.65;;;2.45;;
22916;SDS011;11624;53.250;7.456;2023-01-01T14:08:26;17.95;;;2.92;;
22916;SDS011;11624;53.250;7.456;2023-01-01T14:10:55;18.73;;;2.97;;
22916;SDS011;11624;53.250;7.456;2023-01-01T14:13:27;13.40;;;3.17;;
22916;SDS011;11624;53.250;7.456;2023-01-01T14:15:58;17.38;;;2.70;;
22916;SDS011;11624;53.250;7.456;2023-01-01T14:18:30;17.70;;;2.83;;
22916;SDS011;11624;53.250;7.456;2023-01-01T14:21:04;18.65;;;3.30;;
22916;SDS011;11624;53.250;7.456;2023-01-01T14:23:37;17.48;;;3.67;;
22916;SDS011;11624;53.250;7.456;2023-01-01T14:26:08;16.88;;;3.40;;
22916;SDS011;11624;53.250;7.456;2023-01-01T14:28:38;17.95;;;3.47;;
22916;SDS011;11624;53.250;7.456;2023-01-01T14:31:08;17.50;;;3.15;;
22916;SDS011;11624;53.250;7.456;2023-01-01T14:33:39;17.45;;;3.70;;
22916;SDS011;11624;53.250;7.456;2023-01-01T14:36:14;16.58;;;3.58;;
22916;SDS011;11624;53.250;7.456;2023-01-01T14:38:47;18.90;;;3.80;;
22916;SDS011;11624;53.250;7.456;2023-01-01T14:41:17;18.75;;;3.30;;
22916;SDS011;11624;53.250;7.456;2023-01-01T14:43:50;21.48;;;3.80;;
22916;SDS011;11624;53.250;7.456;2023-01-01T14:46:21;17.02;;;3.35;;
22916;SDS011;11624;53.250;7.456;2023-01-01T14:48:51;23.90;;;4.45;;
22916;SDS011;11624;53.250;7.456;2023-01-01T14:51:23;18.80;;;4.03;;
22916;SDS011;11624;53.250;7.456;2023-01-01T14:53:54;20.10;;;4.03;;
22916;SDS011;11624;53.250;7.456;2023-01-01T14:56:25;19.67;;;4.20;;
22916;SDS011;11624;53.250;7.456;2023-01-01T14:59:00;19.25;;;3.70;;
22916;SDS011;11624;53.250;7.456;2023-01-01T15:01:31;18.85;;;3.95;;
22916;SDS011;11624;53.250;7.456;2023-01-01T15:04:00;20.85;;;3.85;;
22916;SDS011;11624;53.250;7.456;2023-01-01T15:06:31;18.17;;;3.75;;
22916;SDS011;11624;53.250;7.456;2023-01-01T15:08:59;22.75;;;4.22;;
22916;SDS011;11624;53.250;7.456;2023-01-01T15:11:27;21.52;;;4.95;;
22916;SDS011;11624;53.250;7.456;2023-01-01T15:13:57;24.33;;;6.22;;
22916;SDS011;11624;53.250;7.456;2023-01-01T15:16:27;18.58;;;4.55;;
22916;SDS011;11624;53.250;7.456;2023-01-01T15:19:15;17.90;;;4.25;;
22916;SDS011;11624;53.250;7.456;2023-01-01T15:21:46;15.18;;;3.45;;
22916;SDS011;11624;53.250;7.456;2023-01-01T15:24:14;24.63;;;5.38;;
22916;SDS011;11624;53.250;7.456;2023-01-01T15:26:48;19.15;;;4.13;;
22916;SDS011;11624;53.250;7.456;2023-01-01T15:29:22;18.42;;;3.92;;